createdAt,value
2018-07-25T00:00:34.119Z,97.70
2018-07-25T00:03:02.900Z,97.30
2018-07-25T00:05:31.610Z,97.20
2018-07-25T00:07:59.823Z,97.40
2018-07-25T00:10:33.278Z,97.40
2018-07-25T00:13:02.051Z,97.40
2018-07-25T00:15:30.861Z,97.30
2018-07-25T00:17:59.035Z,97.20
2018-07-25T00:20:27.277Z,97.40
2018-07-25T00:22:55.486Z,97.70
2018-07-25T00:25:23.740Z,97.90
2018-07-25T00:27:52.047Z,98.00
2018-07-25T00:30:20.774Z,98.00
2018-07-25T00:32:49.502Z,97.60
2018-07-25T00:35:17.707Z,98.20
2018-07-25T00:37:45.931Z,98.30
2018-07-25T00:40:14.510Z,98.50
2018-07-25T00:42:42.763Z,98.70
2018-07-25T00:45:10.990Z,98.90
2018-07-25T00:47:46.235Z,98.90
2018-07-25T00:50:14.431Z,99.30
2018-07-25T00:52:43.088Z,99.10
2018-07-25T00:55:11.299Z,99.50
2018-07-25T00:57:39.514Z,99.70
2018-07-25T01:00:08.114Z,99.60
2018-07-25T01:02:36.315Z,99.70
2018-07-25T01:05:05.078Z,99.50
2018-07-25T01:07:33.334Z,99.90
2018-07-25T01:10:01.553Z,99.80
2018-07-25T01:12:30.278Z,99.90
2018-07-25T01:14:59.152Z,99.90
2018-07-25T01:17:28.162Z,99.90
2018-07-25T01:19:56.801Z,99.90
2018-07-25T01:22:25.039Z,99.90
2018-07-25T01:24:53.316Z,99.90
2018-07-25T01:27:21.538Z,99.90
2018-07-25T01:29:50.159Z,99.90
2018-07-25T01:32:18.958Z,99.90
2018-07-25T01:34:47.244Z,99.90
2018-07-25T01:37:15.457Z,99.90
2018-07-25T01:39:43.840Z,99.90
2018-07-25T01:42:12.054Z,99.90
2018-07-25T01:44:40.359Z,99.90
2018-07-25T01:47:08.739Z,99.90
2018-07-25T01:49:37.351Z,99.90
2018-07-25T01:52:07.371Z,99.90
2018-07-25T01:54:35.606Z,99.90
2018-07-25T01:57:03.803Z,99.90
2018-07-25T01:59:32.423Z,99.90
2018-07-25T02:02:01.294Z,99.90
2018-07-25T02:04:29.539Z,99.90
2018-07-25T02:06:58.075Z,99.90
2018-07-25T02:09:26.291Z,99.90
2018-07-25T02:11:54.523Z,99.90
2018-07-25T02:14:23.055Z,99.90
2018-07-25T02:16:51.747Z,99.90
2018-07-25T02:19:20.695Z,99.90
2018-07-25T02:21:49.138Z,99.90
2018-07-25T02:24:17.346Z,99.90
2018-07-25T02:26:45.618Z,99.90
2018-07-25T02:29:14.511Z,99.90
2018-07-25T02:31:42.731Z,99.90
2018-07-25T02:34:16.583Z,99.90
2018-07-25T02:36:44.803Z,99.90
2018-07-25T02:39:14.035Z,99.90
2018-07-25T02:41:43.126Z,99.90
2018-07-25T02:44:11.598Z,99.90
2018-07-25T02:46:39.887Z,99.90
2018-07-25T02:51:47.266Z,99.90
2018-07-25T02:54:16.049Z,99.90
2018-07-25T02:56:44.254Z,99.90
2018-07-25T02:59:12.942Z,99.90
2018-07-25T03:01:41.199Z,99.90
2018-07-25T03:04:09.846Z,99.90
2018-07-25T03:06:38.358Z,99.90
2018-07-25T03:09:08.591Z,99.90
2018-07-25T03:11:36.876Z,99.90
2018-07-25T03:14:05.795Z,99.90
2018-07-25T03:16:34.357Z,99.90
2018-07-25T03:19:02.557Z,99.90
2018-07-25T03:21:30.776Z,99.90
2018-07-25T03:26:26.969Z,99.90
2018-07-25T03:28:55.235Z,99.90
2018-07-25T03:31:23.480Z,99.90
2018-07-25T03:33:51.999Z,99.90
2018-07-25T03:36:20.251Z,99.90
2018-07-25T03:38:48.463Z,99.90
2018-07-25T03:41:17.407Z,99.90
2018-07-25T03:43:45.844Z,99.90
2018-07-25T03:46:14.076Z,99.90
2018-07-25T03:48:42.286Z,99.90
2018-07-25T03:51:11.239Z,99.90
2018-07-25T03:53:40.166Z,99.90
2018-07-25T03:56:08.435Z,99.90
2018-07-25T03:58:37.007Z,99.90
2018-07-25T04:03:39.534Z,99.90
2018-07-25T04:06:07.753Z,99.90
2018-07-25T04:08:35.962Z,99.90
2018-07-25T04:11:04.188Z,99.90
2018-07-25T04:13:32.818Z,99.90
2018-07-25T04:16:01.235Z,99.90
2018-07-25T04:18:29.457Z,99.90
2018-07-25T04:20:57.678Z,99.90
2018-07-25T04:23:25.918Z,99.90
2018-07-25T04:25:54.135Z,99.90
2018-07-25T04:28:22.416Z,99.90
2018-07-25T04:30:50.884Z,99.90
2018-07-25T04:33:19.294Z,99.90
2018-07-25T04:35:47.538Z,99.90
2018-07-25T04:38:16.110Z,99.90
2018-07-25T04:40:44.343Z,99.90
2018-07-25T04:43:12.550Z,99.90
2018-07-25T04:45:40.791Z,99.90
2018-07-25T04:48:09.034Z,99.90
2018-07-25T04:50:37.928Z,99.90
2018-07-25T04:53:06.494Z,99.90
2018-07-25T04:55:35.138Z,99.90
2018-07-25T04:58:03.396Z,99.90
2018-07-25T05:00:31.934Z,99.90
2018-07-25T05:03:00.198Z,99.90
2018-07-25T05:05:28.452Z,99.90
2018-07-25T05:07:56.710Z,99.90
2018-07-25T05:10:24.940Z,99.90
2018-07-25T05:12:53.819Z,99.90
2018-07-25T05:15:23.036Z,99.90
2018-07-25T05:17:51.259Z,99.90
2018-07-25T05:20:19.763Z,99.90
2018-07-25T05:22:47.978Z,99.90
2018-07-25T05:25:16.222Z,99.90
2018-07-25T05:27:44.470Z,99.90
2018-07-25T05:30:12.714Z,99.90
2018-07-25T05:32:41.426Z,99.90
2018-07-25T05:35:09.634Z,99.90
2018-07-25T05:37:38.718Z,99.90
2018-07-25T05:40:06.947Z,99.90
2018-07-25T05:42:35.558Z,99.90
2018-07-25T05:45:04.482Z,99.90
2018-07-25T05:47:33.289Z,99.90
2018-07-25T05:50:01.518Z,99.60
2018-07-25T05:52:30.141Z,98.90
2018-07-25T05:54:58.362Z,99.00
2018-07-25T05:57:26.591Z,98.20
2018-07-25T05:59:55.151Z,97.80
2018-07-25T06:02:23.359Z,97.80
2018-07-25T06:04:51.973Z,97.10
2018-07-25T06:07:20.198Z,96.80
2018-07-25T06:09:48.462Z,96.00
2018-07-25T06:12:19.726Z,95.70
2018-07-25T06:14:48.506Z,95.30
2018-07-25T06:17:16.730Z,95.60
2018-07-25T06:19:44.943Z,95.10
2018-07-25T06:22:14.118Z,94.60
2018-07-25T06:24:42.339Z,94.70
2018-07-25T06:27:10.539Z,94.00
2018-07-25T06:29:39.541Z,93.00
2018-07-25T06:32:08.324Z,93.90
2018-07-25T06:34:36.532Z,95.50
2018-07-25T06:37:05.087Z,93.80
2018-07-25T06:39:33.295Z,92.90
2018-07-25T06:42:01.525Z,92.10
2018-07-25T06:44:29.758Z,91.70
2018-07-25T06:46:57.967Z,90.90
2018-07-25T06:49:26.251Z,89.60
2018-07-25T06:51:54.476Z,86.80
2018-07-25T06:54:23.019Z,86.70
2018-07-25T06:56:51.242Z,84.60
2018-07-25T06:59:20.135Z,80.70
2018-07-25T07:01:48.800Z,79.40
2018-07-25T07:04:17.008Z,77.20
2018-07-25T07:06:45.288Z,75.10
2018-07-25T07:09:13.690Z,73.00
2018-07-25T07:11:41.918Z,67.60
2018-07-25T07:14:10.518Z,64.80
2018-07-25T07:16:39.177Z,63.80
2018-07-25T07:19:07.386Z,65.40
2018-07-25T07:21:42.719Z,61.50
2018-07-25T07:24:11.601Z,57.80
2018-07-25T07:26:39.726Z,55.20
2018-07-25T07:29:08.268Z,51.70
2018-07-25T07:31:36.476Z,51.40
2018-07-25T07:34:04.970Z,48.40
2018-07-25T07:36:33.171Z,49.20
2018-07-25T07:39:01.400Z,50.60
2018-07-25T07:41:29.635Z,45.40
2018-07-25T07:43:57.822Z,45.10
2018-07-25T07:46:26.199Z,44.80
2018-07-25T07:48:55.077Z,44.10
2018-07-25T07:51:23.934Z,45.70
2018-07-25T07:53:52.531Z,44.00
2018-07-25T07:56:20.709Z,43.90
2018-07-25T07:58:49.405Z,41.10
2018-07-25T08:01:18.862Z,41.20
2018-07-25T08:03:47.323Z,38.90
2018-07-25T08:06:15.530Z,38.70
2018-07-25T08:08:45.498Z,38.90
2018-07-25T08:11:18.126Z,38.30
2018-07-25T08:13:47.567Z,38.70
2018-07-25T08:16:23.036Z,38.00
2018-07-25T08:18:51.229Z,35.70
2018-07-25T08:21:19.411Z,38.00
2018-07-25T08:23:47.630Z,36.00
2018-07-25T08:26:15.852Z,36.50
2018-07-25T08:28:44.322Z,36.40
2018-07-25T08:31:12.579Z,34.70
2018-07-25T08:33:41.073Z,35.00
2018-07-25T08:36:09.289Z,32.90
2018-07-25T08:38:40.671Z,33.80
2018-07-25T08:41:09.496Z,34.20
2018-07-25T08:43:38.735Z,31.90
2018-07-25T08:46:08.125Z,32.20
2018-07-25T08:48:36.515Z,32.30
2018-07-25T08:51:04.678Z,32.70
2018-07-25T08:53:33.708Z,31.90
2018-07-25T08:56:01.935Z,31.70
2018-07-25T08:58:30.230Z,30.60
2018-07-25T09:00:59.262Z,30.40
2018-07-25T09:03:27.924Z,31.70
2018-07-25T09:05:56.129Z,32.20
2018-07-25T09:08:24.347Z,31.10
2018-07-25T09:10:53.082Z,31.10
2018-07-25T09:13:21.822Z,32.50
2018-07-25T09:15:50.455Z,30.00
2018-07-25T09:18:18.667Z,29.90
2018-07-25T09:20:46.874Z,32.70
2018-07-25T09:23:15.366Z,31.00
2018-07-25T09:25:43.558Z,29.60
2018-07-25T09:28:12.080Z,29.40
2018-07-25T09:30:40.254Z,28.50
2018-07-25T09:33:08.730Z,27.60
2018-07-25T09:35:36.950Z,27.40
2018-07-25T09:38:05.150Z,26.30
2018-07-25T09:40:33.355Z,26.60
2018-07-25T09:43:01.565Z,26.40
2018-07-25T09:45:29.827Z,28.20
2018-07-25T09:47:58.049Z,28.30
2018-07-25T09:50:26.983Z,28.70
2018-07-25T09:52:56.270Z,28.50
2018-07-25T09:55:25.010Z,28.10
2018-07-25T09:57:53.208Z,28.50
2018-07-25T10:00:27.058Z,27.80
2018-07-25T10:02:55.520Z,30.50
2018-07-25T10:05:23.736Z,29.20
2018-07-25T10:07:51.925Z,28.10
2018-07-25T10:10:20.134Z,28.50
2018-07-25T10:12:49.068Z,28.90
2018-07-25T10:15:17.748Z,28.80
2018-07-25T10:17:46.190Z,28.50
2018-07-25T10:20:14.403Z,27.60
2018-07-25T10:22:43.124Z,29.60
2018-07-25T10:25:11.342Z,28.50
2018-07-25T10:27:39.501Z,26.20
2018-07-25T10:30:08.060Z,26.50
2018-07-25T10:32:36.715Z,26.40
2018-07-25T10:35:04.947Z,27.00
2018-07-25T10:37:33.134Z,26.40
2018-07-25T10:40:01.350Z,25.10
2018-07-25T10:42:29.935Z,25.10
2018-07-25T10:44:58.477Z,23.90
2018-07-25T10:47:26.695Z,25.60
2018-07-25T10:49:55.354Z,25.50
2018-07-25T10:52:24.213Z,24.90
2018-07-25T10:54:52.236Z,25.10
2018-07-25T10:57:20.436Z,25.00
2018-07-25T10:59:49.252Z,24.30
2018-07-25T11:02:17.606Z,24.10
2018-07-25T11:04:45.656Z,23.80
2018-07-25T11:07:13.855Z,23.80
2018-07-25T11:09:42.561Z,23.40
2018-07-25T11:14:45.532Z,24.50
2018-07-25T11:17:13.784Z,24.60
2018-07-25T11:19:41.990Z,24.60
2018-07-25T11:22:10.226Z,26.50
2018-07-25T11:24:38.571Z,25.20
2018-07-25T11:27:06.886Z,26.30
2018-07-25T11:29:35.685Z,28.00
2018-07-25T11:32:07.767Z,30.40
2018-07-25T11:34:35.996Z,31.50
2018-07-25T11:37:04.255Z,32.70
2018-07-25T11:39:32.886Z,34.10
2018-07-25T11:42:01.139Z,35.30
2018-07-25T11:44:29.335Z,36.90
2018-07-25T11:46:57.571Z,34.90
2018-07-25T11:49:25.790Z,30.50
2018-07-25T11:51:54.063Z,28.50
2018-07-25T11:54:22.836Z,28.20
2018-07-25T11:56:51.684Z,26.40
2018-07-25T11:59:20.327Z,25.20
2018-07-25T12:01:48.643Z,25.30
2018-07-25T12:04:17.136Z,24.90
2018-07-25T12:06:45.351Z,26.20
2018-07-25T12:09:13.579Z,26.30
2018-07-25T12:11:46.772Z,26.90
2018-07-25T12:14:16.792Z,28.10
2018-07-25T12:16:45.503Z,30.10
2018-07-25T12:19:13.929Z,31.00
2018-07-25T12:21:42.132Z,34.80
2018-07-25T12:24:10.359Z,36.50
2018-07-25T12:26:38.579Z,38.70
2018-07-25T12:29:06.808Z,41.60
2018-07-25T12:34:09.015Z,42.40
2018-07-25T12:36:37.222Z,41.80
2018-07-25T12:39:07.995Z,39.90
2018-07-25T12:41:36.320Z,35.60
2018-07-25T12:44:04.527Z,35.90
2018-07-25T12:46:32.792Z,36.50
2018-07-25T12:49:01.353Z,38.00
2018-07-25T12:51:29.546Z,40.70
2018-07-25T12:53:58.265Z,39.30
2018-07-25T12:56:26.369Z,39.00
2018-07-25T12:58:55.104Z,38.20
2018-07-25T13:01:23.310Z,39.00
2018-07-25T13:03:51.960Z,39.10
2018-07-25T13:06:20.195Z,39.10
2018-07-25T13:08:48.435Z,38.80
2018-07-25T13:11:16.647Z,40.60
2018-07-25T13:13:45.538Z,40.50
2018-07-25T13:16:14.294Z,39.20
2018-07-25T13:18:42.490Z,40.40
2018-07-25T13:21:10.727Z,39.20
2018-07-25T13:23:39.395Z,40.80
2018-07-25T13:26:07.627Z,41.70
2018-07-25T13:28:36.138Z,45.00
2018-07-25T13:31:04.362Z,46.90
2018-07-25T13:33:32.835Z,47.60
2018-07-25T13:36:01.073Z,49.60
2018-07-25T13:38:29.278Z,48.30
2018-07-25T13:40:57.531Z,47.90
2018-07-25T13:43:25.947Z,48.40
2018-07-25T13:45:54.580Z,47.60
2018-07-25T13:48:23.270Z,47.80
2018-07-25T13:50:51.463Z,46.80
2018-07-25T13:53:20.041Z,46.30
2018-07-25T13:55:48.258Z,46.90
2018-07-25T13:58:16.493Z,46.90
2018-07-25T14:00:44.888Z,47.80
2018-07-25T14:03:13.109Z,47.90
2018-07-25T14:05:41.378Z,48.70
2018-07-25T14:08:09.599Z,49.30
2018-07-25T14:10:37.799Z,49.80
2018-07-25T14:13:06.423Z,50.40
2018-07-25T14:15:35.118Z,50.90
2018-07-25T14:18:03.373Z,51.40
2018-07-25T14:20:32.137Z,51.70
2018-07-25T14:23:00.317Z,50.70
2018-07-25T14:25:28.618Z,51.70
2018-07-25T14:27:56.836Z,52.30
2018-07-25T14:30:25.209Z,51.60
2018-07-25T14:32:53.835Z,49.30
2018-07-25T14:35:22.039Z,48.10
2018-07-25T14:37:50.274Z,47.00
2018-07-25T14:40:19.196Z,44.40
2018-07-25T14:42:47.343Z,49.20
2018-07-25T14:45:15.607Z,46.10
2018-07-25T14:47:43.868Z,46.40
2018-07-25T14:50:12.066Z,44.80
2018-07-25T14:52:40.806Z,48.50
2018-07-25T14:55:09.035Z,45.00
2018-07-25T14:57:37.285Z,46.80
2018-07-25T15:00:06.879Z,47.50
2018-07-25T15:02:35.378Z,46.10
2018-07-25T15:05:03.578Z,46.60
2018-07-25T15:07:31.774Z,48.00
2018-07-25T15:10:00.508Z,49.30
2018-07-25T15:12:34.671Z,49.70
2018-07-25T15:15:03.444Z,49.50
2018-07-25T15:17:31.656Z,49.60
2018-07-25T15:19:59.875Z,50.30
2018-07-25T15:22:28.107Z,47.60
2018-07-25T15:24:56.780Z,49.30
2018-07-25T15:27:25.434Z,46.70
2018-07-25T15:29:54.139Z,48.60
2018-07-25T15:32:22.787Z,49.90
2018-07-25T15:34:50.995Z,50.20
2018-07-25T15:37:19.233Z,49.10
2018-07-25T15:39:47.446Z,45.30
2018-07-25T15:42:16.095Z,46.90
2018-07-25T15:44:44.739Z,47.30
2018-07-25T15:47:12.960Z,47.20
2018-07-25T15:49:41.189Z,43.90
2018-07-25T15:52:09.851Z,46.60
2018-07-25T15:54:38.118Z,46.80
2018-07-25T15:57:06.355Z,45.50
2018-07-25T15:59:34.707Z,44.30
2018-07-25T16:02:02.994Z,46.30
2018-07-25T16:04:31.307Z,47.20
2018-07-25T16:06:59.784Z,44.40
2018-07-25T16:09:27.986Z,48.40
2018-07-25T16:11:56.191Z,47.80
2018-07-25T16:14:24.546Z,47.00
2018-07-25T16:16:52.932Z,48.40
2018-07-25T16:19:21.183Z,49.30
2018-07-25T16:21:49.393Z,50.80
2018-07-25T16:24:18.310Z,50.40
2018-07-25T16:26:46.490Z,47.00
2018-07-25T16:29:15.003Z,48.70
2018-07-25T16:31:43.218Z,49.30
2018-07-25T16:34:11.619Z,51.40
2018-07-25T16:36:40.052Z,52.30
2018-07-25T16:39:12.372Z,53.70
2018-07-25T16:41:40.599Z,54.10
2018-07-25T16:44:09.019Z,53.90
2018-07-25T16:46:37.253Z,54.40
2018-07-25T16:49:06.031Z,54.00
2018-07-25T16:51:34.517Z,53.90
2018-07-25T16:54:03.467Z,53.70
2018-07-25T16:56:31.738Z,54.30
2018-07-25T16:58:59.976Z,54.70
2018-07-25T17:01:28.750Z,55.00
2018-07-25T17:03:57.466Z,55.30
2018-07-25T17:06:25.718Z,56.00
2018-07-25T17:08:53.941Z,55.70
2018-07-25T17:11:22.200Z,56.10
2018-07-25T17:13:50.782Z,54.80
2018-07-25T17:16:19.229Z,55.50
2018-07-25T17:18:47.512Z,55.40
2018-07-25T17:21:15.745Z,56.50
2018-07-25T17:23:43.991Z,56.20
2018-07-25T17:26:12.755Z,55.00
2018-07-25T17:28:41.512Z,55.30
2018-07-25T17:31:09.762Z,55.70
2018-07-25T17:33:38.623Z,55.30
2018-07-25T17:36:06.859Z,54.90
2018-07-25T17:38:35.077Z,53.90
2018-07-25T17:41:03.413Z,53.40
2018-07-25T17:43:31.558Z,55.20
2018-07-25T17:46:00.276Z,55.30
2018-07-25T17:48:28.505Z,55.50
2018-07-25T17:50:56.771Z,55.80
2018-07-25T17:53:25.442Z,55.10
2018-07-25T17:55:54.038Z,55.20
2018-07-25T17:58:22.265Z,55.90
2018-07-25T18:00:57.085Z,55.10
2018-07-25T18:03:25.394Z,56.80
2018-07-25T18:05:53.603Z,56.00
2018-07-25T18:08:21.914Z,55.80
2018-07-25T18:10:50.144Z,56.80
2018-07-25T18:13:24.146Z,56.40
2018-07-25T18:15:53.715Z,57.60
2018-07-25T18:18:21.947Z,57.90
2018-07-25T18:20:50.196Z,59.80
2018-07-25T18:23:18.506Z,59.00
2018-07-25T18:25:46.699Z,60.10
2018-07-25T18:28:15.354Z,60.40
2018-07-25T18:30:43.624Z,60.70
2018-07-25T18:33:12.098Z,60.00
2018-07-25T18:35:40.388Z,62.50
2018-07-25T18:38:08.552Z,61.60
2018-07-25T18:40:36.803Z,62.10
2018-07-25T18:43:05.261Z,61.70
2018-07-25T18:45:34.510Z,61.30
2018-07-25T18:48:03.565Z,60.90
2018-07-25T18:50:32.102Z,63.50
2018-07-25T18:53:00.667Z,63.60
2018-07-25T18:55:28.879Z,61.80
2018-07-25T18:57:57.128Z,57.20
2018-07-25T19:00:25.407Z,56.40
2018-07-25T19:02:53.607Z,57.30
2018-07-25T19:05:28.242Z,56.10
2018-07-25T19:07:56.471Z,55.80
2018-07-25T19:10:24.737Z,55.80
2018-07-25T19:12:54.518Z,55.90
2018-07-25T19:15:29.296Z,56.50
2018-07-25T19:17:58.150Z,58.20
2018-07-25T19:20:26.438Z,56.70
2018-07-25T19:22:55.019Z,58.40
2018-07-25T19:25:23.688Z,59.80
2018-07-25T19:27:53.481Z,58.80
2018-07-25T19:30:21.730Z,58.10
2018-07-25T19:32:50.707Z,58.00
2018-07-25T19:35:19.195Z,59.10
2018-07-25T19:37:47.416Z,59.80
2018-07-25T19:40:15.660Z,60.80
2018-07-25T19:42:43.913Z,58.60
2018-07-25T19:45:12.484Z,60.20
2018-07-25T19:47:45.783Z,62.10
2018-07-25T19:50:14.251Z,61.60
2018-07-25T19:52:42.971Z,61.60
2018-07-25T19:55:11.791Z,62.70
2018-07-25T19:57:40.049Z,62.90
2018-07-25T20:00:08.310Z,64.30
2018-07-25T20:02:36.555Z,65.50
2018-07-25T20:05:05.167Z,67.30
2018-07-25T20:07:33.472Z,70.50
2018-07-25T20:10:01.702Z,72.50
2018-07-25T20:12:30.616Z,73.60
2018-07-25T20:15:04.721Z,75.30
2018-07-25T20:17:32.947Z,76.20
2018-07-25T20:20:01.201Z,77.60
2018-07-25T20:22:29.613Z,78.50
2018-07-25T20:24:58.058Z,80.30
2018-07-25T20:27:26.575Z,81.00
2018-07-25T20:29:54.802Z,81.90
2018-07-25T20:32:23.607Z,82.80
2018-07-25T20:34:51.831Z,78.20
2018-07-25T20:37:20.104Z,81.30
2018-07-25T20:39:48.334Z,77.30
2018-07-25T20:42:16.617Z,76.30
2018-07-25T20:44:45.123Z,78.20
2018-07-25T20:47:13.379Z,78.50
2018-07-25T20:49:41.812Z,78.50
2018-07-25T20:52:10.479Z,78.20
2018-07-25T20:54:38.920Z,78.10
2018-07-25T20:57:07.410Z,78.00
2018-07-25T20:59:35.646Z,78.90
2018-07-25T21:02:03.970Z,77.90
2018-07-25T21:04:32.203Z,76.60
2018-07-25T21:07:00.487Z,76.90
2018-07-25T21:09:28.735Z,77.00
2018-07-25T21:11:56.970Z,76.70
2018-07-25T21:14:25.382Z,78.00
2018-07-25T21:16:53.930Z,77.20
2018-07-25T21:19:22.198Z,77.50
2018-07-25T21:21:50.467Z,78.50
2018-07-25T21:24:19.061Z,79.40
2018-07-25T21:26:47.331Z,79.70
2018-07-25T21:29:15.554Z,79.80
2018-07-25T21:31:51.579Z,80.90
2018-07-25T21:34:19.957Z,81.50
2018-07-25T21:36:48.342Z,81.10
2018-07-25T21:39:16.576Z,82.80
2018-07-25T21:41:44.814Z,83.90
2018-07-25T21:44:13.463Z,84.00
2018-07-25T21:46:41.735Z,84.20
2018-07-25T21:49:16.373Z,84.10
2018-07-25T21:51:44.619Z,84.10
2018-07-25T21:55:37.868Z,84.40
2018-07-25T21:58:06.079Z,85.40
2018-07-25T22:00:34.343Z,86.40
2018-07-25T22:03:02.617Z,88.00
2018-07-25T22:05:30.992Z,89.10
2018-07-25T22:07:59.256Z,89.60
2018-07-25T22:10:27.572Z,89.50
2018-07-25T22:12:56.220Z,89.70
2018-07-25T22:15:24.941Z,90.10
2018-07-25T22:17:53.176Z,90.20
2018-07-25T22:20:21.440Z,90.30
2018-07-25T22:22:49.678Z,90.80
2018-07-25T22:25:18.211Z,90.90
2018-07-25T22:27:46.930Z,91.10
2018-07-25T22:30:15.211Z,91.10
2018-07-25T22:32:43.846Z,90.80
2018-07-25T22:35:18.942Z,91.60
2018-07-25T22:37:47.265Z,91.00
2018-07-25T22:40:15.418Z,91.30
2018-07-25T22:42:43.800Z,91.00
2018-07-25T22:45:12.455Z,91.40
2018-07-25T22:47:45.487Z,91.30
2018-07-25T22:50:20.435Z,91.70
2018-07-25T22:52:48.822Z,91.50
2018-07-25T22:55:17.639Z,91.50
2018-07-25T22:57:45.872Z,92.10
2018-07-25T23:00:14.075Z,92.00
2018-07-25T23:02:42.290Z,92.00
2018-07-25T23:05:11.030Z,92.10
2018-07-25T23:07:39.223Z,92.10
2018-07-25T23:10:07.427Z,92.60
2018-07-25T23:12:35.860Z,92.50
2018-07-25T23:15:05.160Z,93.20
2018-07-25T23:17:33.364Z,92.90
2018-07-25T23:20:01.612Z,92.90
2018-07-25T23:22:32.015Z,92.70
2018-07-25T23:25:00.228Z,92.80
2018-07-25T23:27:28.582Z,93.00
2018-07-25T23:29:56.799Z,93.10
2018-07-25T23:32:25.391Z,93.00
2018-07-25T23:34:53.614Z,92.90
2018-07-25T23:37:25.421Z,92.90
2018-07-25T23:39:53.644Z,93.30
2018-07-25T23:42:21.846Z,93.60
2018-07-25T23:44:50.091Z,93.60
2018-07-25T23:47:18.472Z,94.00
2018-07-25T23:49:46.679Z,94.10
2018-07-25T23:52:15.486Z,93.80
2018-07-25T23:54:43.708Z,94.10
2018-07-25T23:57:11.904Z,94.00
2018-07-25T23:59:40.283Z,94.00
